KDMW

Carroll County Regional / Jack B Poage Field Airport

Westminster, Maryland, USA
METAR KDMW 230540Z AUTO 20005KT 10SM OVC070 10/03 A3011 RMK AO2
Observed Flight Rules
Oct-23 @ 05:40 UTC (23 minutes ago) Visual Flight Rules
Wind Visibility Clouds
200° at 5 knots 10 miles
  • Overcast at 7,000' AGL
Temperatures Readings
Current 10°C / 50°F
Dewpoint 3°C / 37°F
Humidity 62%
Altimeter 30.11" Hg
Pressure 1020 hPa
Elevation 241
METAR KDMW 230540Z AUTO 20005KT 10SM OVC070 10/03 A3011 RMK AO2
Observed Flight Rules
Oct-23 @ 05:40 UTC
(23 minutes ago)
VFR
Wind Visibility
200° at 5 knots 10 miles
Clouds
  • Overcast at 7,000' AGL
Temperature Dewpoint
10°C / 50°F 3°C / 37°F
Humidity Altimeter Pressure
62% 30.11" Hg 1020 hPa